Terminal Aerodrome Forecast
Issued by NWS

Home | Current Version | Previous Version | Text Only | Print | Product List | Glossary On
Versions: 1 2 3 4 5 6 7 8 9 10 11 12 13 14 15 16 17 18 19 20 21 22 23 24 25 26
000
FTUS41 KOKX 301946 AAB
TAFHPN
TAF AMD
KHPN 301946Z 3020/3118 VRB03KT P6SM VCSH BKN080
     FM302300 VRB03KT P6SM BKN150
     FM311500 29006KT P6SM BKN250
      AMD NOT SKED=

USA.gov is the U.S. government's official web portal to all federal, state and local government web resources and services.